sensor_id;sensor_type;location;lat;lon;timestamp;P1;durP1;ratioP1;P2;durP2;ratioP2
4744;SDS011;2386;42.138;24.746;2023-07-24T00:01:27;19.87;;;8.20;;
4744;SDS011;2386;42.138;24.746;2023-07-24T00:03:53;17.73;;;9.80;;
4744;SDS011;2386;42.138;24.746;2023-07-24T00:06:19;22.27;;;9.37;;
4744;SDS011;2386;42.138;24.746;2023-07-24T00:08:45;22.33;;;9.80;;
4744;SDS011;2386;42.138;24.746;2023-07-24T00:11:10;15.20;;;9.20;;
4744;SDS011;2386;42.138;24.746;2023-07-24T00:13:35;21.17;;;9.73;;
4744;SDS011;2386;42.138;24.746;2023-07-24T00:16:05;19.57;;;9.80;;
4744;SDS011;2386;42.138;24.746;2023-07-24T00:18:31;20.97;;;10.40;;
4744;SDS011;2386;42.138;24.746;2023-07-24T00:20:57;19.70;;;9.53;;
4744;SDS011;2386;42.138;24.746;2023-07-24T00:23:22;22.30;;;10.87;;
4744;SDS011;2386;42.138;24.746;2023-07-24T00:25:47;16.47;;;9.57;;
4744;SDS011;2386;42.138;24.746;2023-07-24T00:28:13;18.20;;;8.90;;
4744;SDS011;2386;42.138;24.746;2023-07-24T00:30:38;15.30;;;9.37;;
4744;SDS011;2386;42.138;24.746;2023-07-24T00:33:03;23.73;;;9.73;;
4744;SDS011;2386;42.138;24.746;2023-07-24T00:35:29;16.57;;;9.23;;
4744;SDS011;2386;42.138;24.746;2023-07-24T00:37:54;14.20;;;8.57;;
4744;SDS011;2386;42.138;24.746;2023-07-24T00:40:20;20.73;;;8.60;;
4744;SDS011;2386;42.138;24.746;2023-07-24T00:42:48;20.57;;;9.47;;
4744;SDS011;2386;42.138;24.746;2023-07-24T00:45:14;15.27;;;8.97;;
4744;SDS011;2386;42.138;24.746;2023-07-24T00:47:40;16.23;;;8.63;;
4744;SDS011;2386;42.138;24.746;2023-07-24T00:50:07;16.37;;;9.30;;
4744;SDS011;2386;42.138;24.746;2023-07-24T00:52:33;12.53;;;8.60;;
4744;SDS011;2386;42.138;24.746;2023-07-24T00:54:59;24.70;;;8.50;;
4744;SDS011;2386;42.138;24.746;2023-07-24T00:57:24;21.00;;;8.43;;
4744;SDS011;2386;42.138;24.746;2023-07-24T00:59:50;27.53;;;8.70;;
4744;SDS011;2386;42.138;24.746;2023-07-24T01:02:16;17.53;;;8.40;;
4744;SDS011;2386;42.138;24.746;2023-07-24T01:04:41;12.23;;;7.57;;
4744;SDS011;2386;42.138;24.746;2023-07-24T01:07:06;17.10;;;7.77;;
4744;SDS011;2386;42.138;24.746;2023-07-24T01:09:32;13.50;;;8.60;;
4744;SDS011;2386;42.138;24.746;2023-07-24T01:17:07;13.13;;;8.83;;
4744;SDS011;2386;42.138;24.746;2023-07-24T01:19:43;25.43;;;9.37;;
4744;SDS011;2386;42.138;24.746;2023-07-24T01:27:45;25.00;;;8.80;;
4744;SDS011;2386;42.138;24.746;2023-07-24T01:30:11;17.90;;;9.20;;
4744;SDS011;2386;42.138;24.746;2023-07-24T01:32:38;14.03;;;8.47;;
4744;SDS011;2386;42.138;24.746;2023-07-24T01:35:04;21.27;;;9.80;;
4744;SDS011;2386;42.138;24.746;2023-07-24T01:37:30;26.70;;;10.30;;
4744;SDS011;2386;42.138;24.746;2023-07-24T01:39:56;22.87;;;8.83;;
4744;SDS011;2386;42.138;24.746;2023-07-24T01:42:23;26.73;;;10.80;;
4744;SDS011;2386;42.138;24.746;2023-07-24T01:44:53;20.57;;;9.20;;
4744;SDS011;2386;42.138;24.746;2023-07-24T01:47:19;18.70;;;9.97;;
4744;SDS011;2386;42.138;24.746;2023-07-24T01:49:45;15.93;;;10.30;;
4744;SDS011;2386;42.138;24.746;2023-07-24T01:52:11;20.13;;;11.97;;
4744;SDS011;2386;42.138;24.746;2023-07-24T01:54:36;27.23;;;11.60;;
4744;SDS011;2386;42.138;24.746;2023-07-24T01:57:01;18.03;;;11.63;;
4744;SDS011;2386;42.138;24.746;2023-07-24T01:59:27;23.23;;;11.57;;
4744;SDS011;2386;42.138;24.746;2023-07-24T02:01:52;24.17;;;10.67;;
4744;SDS011;2386;42.138;24.746;2023-07-24T02:04:18;38.00;;;12.77;;
4744;SDS011;2386;42.138;24.746;2023-07-24T02:06:47;23.97;;;11.73;;
4744;SDS011;2386;42.138;24.746;2023-07-24T02:09:15;27.30;;;11.20;;
4744;SDS011;2386;42.138;24.746;2023-07-24T02:11:42;26.43;;;11.30;;
4744;SDS011;2386;42.138;24.746;2023-07-24T02:14:07;21.50;;;10.47;;
4744;SDS011;2386;42.138;24.746;2023-07-24T02:16:33;31.57;;;10.37;;
4744;SDS011;2386;42.138;24.746;2023-07-24T02:18:58;26.37;;;11.43;;
4744;SDS011;2386;42.138;24.746;2023-07-24T02:21:24;22.27;;;10.73;;
4744;SDS011;2386;42.138;24.746;2023-07-24T02:23:49;23.03;;;11.30;;
4744;SDS011;2386;42.138;24.746;2023-07-24T02:26:14;25.10;;;12.60;;
4744;SDS011;2386;42.138;24.746;2023-07-24T02:28:40;29.83;;;13.53;;
4744;SDS011;2386;42.138;24.746;2023-07-24T02:31:05;31.33;;;15.10;;
4744;SDS011;2386;42.138;24.746;2023-07-24T02:33:31;24.90;;;14.33;;
4744;SDS011;2386;42.138;24.746;2023-07-24T02:35:56;39.00;;;15.83;;
4744;SDS011;2386;42.138;24.746;2023-07-24T02:38:21;39.93;;;15.37;;
4744;SDS011;2386;42.138;24.746;2023-07-24T02:40:47;30.00;;;14.40;;
4744;SDS011;2386;42.138;24.746;2023-07-24T02:43:12;29.23;;;15.53;;
4744;SDS011;2386;42.138;24.746;2023-07-24T02:45:37;27.87;;;15.97;;
4744;SDS011;2386;42.138;24.746;2023-07-24T02:48:03;33.57;;;17.13;;
4744;SDS011;2386;42.138;24.746;2023-07-24T02:50:29;37.43;;;16.77;;
4744;SDS011;2386;42.138;24.746;2023-07-24T02:52:54;37.63;;;16.17;;
4744;SDS011;2386;42.138;24.746;2023-07-24T02:55:20;27.07;;;14.60;;
4744;SDS011;2386;42.138;24.746;2023-07-24T02:57:45;35.33;;;16.10;;
4744;SDS011;2386;42.138;24.746;2023-07-24T03:00:11;35.10;;;17.20;;
4744;SDS011;2386;42.138;24.746;2023-07-24T03:02:37;39.60;;;16.40;;
4744;SDS011;2386;42.138;24.746;2023-07-24T03:05:03;36.37;;;16.53;;
4744;SDS011;2386;42.138;24.746;2023-07-24T03:07:29;30.50;;;14.90;;
4744;SDS011;2386;42.138;24.746;2023-07-24T03:09:54;33.90;;;17.67;;
4744;SDS011;2386;42.138;24.746;2023-07-24T03:12:19;38.10;;;16.60;;
4744;SDS011;2386;42.138;24.746;2023-07-24T03:14:45;31.23;;;15.07;;
4744;SDS011;2386;42.138;24.746;2023-07-24T03:17:10;37.20;;;16.67;;
4744;SDS011;2386;42.138;24.746;2023-07-24T03:19:36;36.77;;;17.60;;
4744;SDS011;2386;42.138;24.746;2023-07-24T03:22:01;36.50;;;17.20;;
4744;SDS011;2386;42.138;24.746;2023-07-24T03:24:27;36.87;;;17.93;;
4744;SDS011;2386;42.138;24.746;2023-07-24T03:26:53;51.70;;;18.77;;
4744;SDS011;2386;42.138;24.746;2023-07-24T03:29:18;34.83;;;17.30;;
4744;SDS011;2386;42.138;24.746;2023-07-24T03:31:43;42.13;;;19.13;;
4744;SDS011;2386;42.138;24.746;2023-07-24T03:34:09;35.20;;;17.00;;
4744;SDS011;2386;42.138;24.746;2023-07-24T03:36:34;44.43;;;17.13;;
4744;SDS011;2386;42.138;24.746;2023-07-24T03:39:00;55.67;;;21.70;;
4744;SDS011;2386;42.138;24.746;2023-07-24T03:41:26;62.57;;;19.73;;
4744;SDS011;2386;42.138;24.746;2023-07-24T03:43:51;56.53;;;20.10;;
4744;SDS011;2386;42.138;24.746;2023-07-24T03:46:17;47.70;;;18.80;;
4744;SDS011;2386;42.138;24.746;2023-07-24T03:48:42;38.60;;;18.17;;
4744;SDS011;2386;42.138;24.746;2023-07-24T03:51:07;41.37;;;17.63;;
4744;SDS011;2386;42.138;24.746;2023-07-24T03:53:33;39.13;;;17.53;;
4744;SDS011;2386;42.138;24.746;2023-07-24T03:55:58;39.53;;;17.23;;
4744;SDS011;2386;42.138;24.746;2023-07-24T03:58:24;63.33;;;18.40;;
4744;SDS011;2386;42.138;24.746;2023-07-24T04:00:49;39.30;;;19.07;;
4744;SDS011;2386;42.138;24.746;2023-07-24T04:03:15;38.70;;;18.47;;
4744;SDS011;2386;42.138;24.746;2023-07-24T04:05:41;36.97;;;19.20;;
4744;SDS011;2386;42.138;24.746;2023-07-24T04:08:06;44.03;;;19.60;;
4744;SDS011;2386;42.138;24.746;2023-07-24T04:10:31;40.97;;;19.93;;
4744;SDS011;2386;42.138;24.746;2023-07-24T04:12:57;46.57;;;20.60;;
4744;SDS011;2386;42.138;24.746;2023-07-24T04:15:22;36.20;;;19.30;;
4744;SDS011;2386;42.138;24.746;2023-07-24T04:17:48;34.80;;;18.30;;
4744;SDS011;2386;42.138;24.746;2023-07-24T04:20:13;42.13;;;19.13;;
4744;SDS011;2386;42.138;24.746;2023-07-24T04:22:39;60.73;;;20.27;;
4744;SDS011;2386;42.138;24.746;2023-07-24T04:25:05;41.30;;;19.00;;
4744;SDS011;2386;42.138;24.746;2023-07-24T04:27:30;48.57;;;20.60;;
4744;SDS011;2386;42.138;24.746;2023-07-24T04:29:56;38.80;;;19.93;;
4744;SDS011;2386;42.138;24.746;2023-07-24T04:32:21;39.60;;;20.40;;
4744;SDS011;2386;42.138;24.746;2023-07-24T04:34:46;38.33;;;19.60;;
4744;SDS011;2386;42.138;24.746;2023-07-24T04:37:12;43.00;;;18.70;;
4744;SDS011;2386;42.138;24.746;2023-07-24T04:39:40;38.80;;;21.30;;
4744;SDS011;2386;42.138;24.746;2023-07-24T04:42:06;33.87;;;20.30;;
4744;SDS011;2386;42.138;24.746;2023-07-24T04:44:31;51.03;;;21.83;;
4744;SDS011;2386;42.138;24.746;2023-07-24T04:46:57;43.00;;;20.57;;
4744;SDS011;2386;42.138;24.746;2023-07-24T04:49:23;52.50;;;20.80;;
4744;SDS011;2386;42.138;24.746;2023-07-24T04:51:49;53.20;;;22.30;;
4744;SDS011;2386;42.138;24.746;2023-07-24T04:54:15;42.43;;;20.10;;
4744;SDS011;2386;42.138;24.746;2023-07-24T04:56:40;46.20;;;20.43;;
4744;SDS011;2386;42.138;24.746;2023-07-24T04:59:06;38.23;;;18.93;;
4744;SDS011;2386;42.138;24.746;2023-07-24T05:01:31;38.33;;;21.33;;
4744;SDS011;2386;42.138;24.746;2023-07-24T05:03:56;38.37;;;19.80;;
4744;SDS011;2386;42.138;24.746;2023-07-24T05:06:22;45.10;;;20.63;;
4744;SDS011;2386;42.138;24.746;2023-07-24T05:08:48;48.03;;;21.20;;
4744;SDS011;2386;42.138;24.746;2023-07-24T05:11:14;41.23;;;20.70;;
4744;SDS011;2386;42.138;24.746;2023-07-24T05:13:39;42.47;;;19.20;;
4744;SDS011;2386;42.138;24.746;2023-07-24T05:16:04;43.87;;;21.00;;
4744;SDS011;2386;42.138;24.746;2023-07-24T05:18:30;40.80;;;19.30;;
4744;SDS011;2386;42.138;24.746;2023-07-24T05:20:55;47.10;;;20.37;;
4744;SDS011;2386;42.138;24.746;2023-07-24T05:23:21;32.80;;;17.23;;
4744;SDS011;2386;42.138;24.746;2023-07-24T05:25:46;36.57;;;18.93;;
4744;SDS011;2386;42.138;24.746;2023-07-24T05:28:12;39.50;;;20.33;;
4744;SDS011;2386;42.138;24.746;2023-07-24T05:30:37;58.67;;;22.23;;
4744;SDS011;2386;42.138;24.746;2023-07-24T05:33:02;36.57;;;17.73;;
4744;SDS011;2386;42.138;24.746;2023-07-24T05:35:28;45.47;;;20.30;;
4744;SDS011;2386;42.138;24.746;2023-07-24T05:37:53;49.93;;;19.33;;
4744;SDS011;2386;42.138;24.746;2023-07-24T05:40:19;46.53;;;19.90;;
4744;SDS011;2386;42.138;24.746;2023-07-24T05:42:44;34.07;;;18.63;;
4744;SDS011;2386;42.138;24.746;2023-07-24T05:45:10;45.27;;;19.70;;
4744;SDS011;2386;42.138;24.746;2023-07-24T05:47:36;54.33;;;20.27;;
4744;SDS011;2386;42.138;24.746;2023-07-24T05:50:02;50.83;;;21.63;;
4744;SDS011;2386;42.138;24.746;2023-07-24T05:52:27;55.17;;;21.40;;
4744;SDS011;2386;42.138;24.746;2023-07-24T05:54:53;40.70;;;19.20;;
4744;SDS011;2386;42.138;24.746;2023-07-24T05:57:19;43.43;;;21.33;;
4744;SDS011;2386;42.138;24.746;2023-07-24T05:59:44;31.80;;;17.73;;
4744;SDS011;2386;42.138;24.746;2023-07-24T06:02:10;60.70;;;20.57;;
4744;SDS011;2386;42.138;24.746;2023-07-24T06:04:35;34.80;;;19.70;;
4744;SDS011;2386;42.138;24.746;2023-07-24T06:07:01;36.97;;;18.83;;
4744;SDS011;2386;42.138;24.746;2023-07-24T06:09:26;43.90;;;18.60;;
4744;SDS011;2386;42.138;24.746;2023-07-24T06:11:52;39.10;;;19.10;;
4744;SDS011;2386;42.138;24.746;2023-07-24T06:14:17;34.67;;;17.90;;
4744;SDS011;2386;42.138;24.746;2023-07-24T06:16:42;36.20;;;18.73;;
4744;SDS011;2386;42.138;24.746;2023-07-24T06:19:08;39.80;;;18.73;;
4744;SDS011;2386;42.138;24.746;2023-07-24T06:21:33;39.57;;;21.03;;
4744;SDS011;2386;42.138;24.746;2023-07-24T06:23:59;34.70;;;17.60;;
4744;SDS011;2386;42.138;24.746;2023-07-24T06:26:24;41.03;;;19.00;;
4744;SDS011;2386;42.138;24.746;2023-07-24T06:28:49;31.80;;;17.00;;
4744;SDS011;2386;42.138;24.746;2023-07-24T06:31:15;38.37;;;19.00;;
4744;SDS011;2386;42.138;24.746;2023-07-24T06:33:40;41.17;;;19.50;;
4744;SDS011;2386;42.138;24.746;2023-07-24T06:36:09;72.00;;;22.60;;
4744;SDS011;2386;42.138;24.746;2023-07-24T06:38:35;56.70;;;20.30;;
4744;SDS011;2386;42.138;24.746;2023-07-24T06:41:01;54.00;;;19.43;;
4744;SDS011;2386;42.138;24.746;2023-07-24T06:43:26;57.60;;;20.03;;
4744;SDS011;2386;42.138;24.746;2023-07-24T06:45:52;50.17;;;20.63;;
4744;SDS011;2386;42.138;24.746;2023-07-24T06:48:18;41.23;;;19.07;;
4744;SDS011;2386;42.138;24.746;2023-07-24T06:50:43;43.70;;;19.47;;
4744;SDS011;2386;42.138;24.746;2023-07-24T06:53:09;58.67;;;20.83;;
4744;SDS011;2386;42.138;24.746;2023-07-24T06:55:34;58.07;;;20.70;;
4744;SDS011;2386;42.138;24.746;2023-07-24T06:57:59;32.40;;;16.50;;
4744;SDS011;2386;42.138;24.746;2023-07-24T07:00:25;51.97;;;19.57;;
4744;SDS011;2386;42.138;24.746;2023-07-24T07:02:50;40.80;;;17.83;;
4744;SDS011;2386;42.138;24.746;2023-07-24T07:05:16;45.67;;;18.20;;
4744;SDS011;2386;42.138;24.746;2023-07-24T07:07:41;55.13;;;19.90;;
4744;SDS011;2386;42.138;24.746;2023-07-24T07:10:07;40.70;;;16.20;;
4744;SDS011;2386;42.138;24.746;2023-07-24T07:12:32;41.87;;;17.70;;
4744;SDS011;2386;42.138;24.746;2023-07-24T07:14:58;44.23;;;18.40;;
4744;SDS011;2386;42.138;24.746;2023-07-24T07:17:23;62.57;;;20.00;;
4744;SDS011;2386;42.138;24.746;2023-07-24T07:19:48;48.77;;;19.40;;
4744;SDS011;2386;42.138;24.746;2023-07-24T07:22:14;59.83;;;19.53;;
4744;SDS011;2386;42.138;24.746;2023-07-24T07:24:39;42.37;;;18.87;;
4744;SDS011;2386;42.138;24.746;2023-07-24T07:27:05;62.70;;;21.13;;
4744;SDS011;2386;42.138;24.746;2023-07-24T07:29:30;45.17;;;18.07;;
4744;SDS011;2386;42.138;24.746;2023-07-24T07:31:56;73.33;;;21.80;;
4744;SDS011;2386;42.138;24.746;2023-07-24T07:34:22;51.87;;;19.30;;
4744;SDS011;2386;42.138;24.746;2023-07-24T07:36:47;51.77;;;20.10;;
4744;SDS011;2386;42.138;24.746;2023-07-24T07:39:12;51.73;;;19.23;;
4744;SDS011;2386;42.138;24.746;2023-07-24T07:41:38;34.53;;;17.13;;
4744;SDS011;2386;42.138;24.746;2023-07-24T07:44:04;55.47;;;18.77;;
4744;SDS011;2386;42.138;24.746;2023-07-24T07:46:29;36.60;;;18.70;;
4744;SDS011;2386;42.138;24.746;2023-07-24T07:48:55;55.90;;;20.33;;
4744;SDS011;2386;42.138;24.746;2023-07-24T07:51:21;69.33;;;23.33;;
4744;SDS011;2386;42.138;24.746;2023-07-24T07:53:46;43.27;;;19.47;;
4744;SDS011;2386;42.138;24.746;2023-07-24T07:56:12;40.10;;;19.53;;
4744;SDS011;2386;42.138;24.746;2023-07-24T07:58:37;51.93;;;19.13;;
4744;SDS011;2386;42.138;24.746;2023-07-24T08:01:03;58.60;;;20.27;;
4744;SDS011;2386;42.138;24.746;2023-07-24T08:03:30;51.50;;;18.17;;
4744;SDS011;2386;42.138;24.746;2023-07-24T08:05:58;63.27;;;21.33;;
4744;SDS011;2386;42.138;24.746;2023-07-24T08:08:24;50.80;;;19.37;;
4744;SDS011;2386;42.138;24.746;2023-07-24T08:10:49;45.97;;;19.60;;
4744;SDS011;2386;42.138;24.746;2023-07-24T08:13:14;104.33;;;66.47;;
4744;SDS011;2386;42.138;24.746;2023-07-24T08:15:40;41.10;;;18.27;;
4744;SDS011;2386;42.138;24.746;2023-07-24T08:18:05;33.67;;;15.63;;
4744;SDS011;2386;42.138;24.746;2023-07-24T08:20:32;31.00;;;16.27;;
4744;SDS011;2386;42.138;24.746;2023-07-24T08:22:59;43.27;;;17.33;;
4744;SDS011;2386;42.138;24.746;2023-07-24T08:25:25;52.70;;;15.80;;
4744;SDS011;2386;42.138;24.746;2023-07-24T08:27:50;36.30;;;15.30;;
4744;SDS011;2386;42.138;24.746;2023-07-24T08:30:16;23.33;;;14.93;;
4744;SDS011;2386;42.138;24.746;2023-07-24T08:32:41;27.87;;;14.57;;
4744;SDS011;2386;42.138;24.746;2023-07-24T08:35:07;39.63;;;16.37;;
4744;SDS011;2386;42.138;24.746;2023-07-24T08:37:32;39.67;;;17.23;;
4744;SDS011;2386;42.138;24.746;2023-07-24T08:39:57;38.73;;;16.37;;
4744;SDS011;2386;42.138;24.746;2023-07-24T08:42:23;41.10;;;16.47;;
4744;SDS011;2386;42.138;24.746;2023-07-24T08:44:48;23.43;;;13.83;;
4744;SDS011;2386;42.138;24.746;2023-07-24T08:47:15;35.70;;;16.80;;
4744;SDS011;2386;42.138;24.746;2023-07-24T08:49:41;42.63;;;17.80;;
4744;SDS011;2386;42.138;24.746;2023-07-24T08:52:08;41.83;;;18.87;;
4744;SDS011;2386;42.138;24.746;2023-07-24T08:54:38;49.17;;;19.23;;
4744;SDS011;2386;42.138;24.746;2023-07-24T08:57:06;36.93;;;16.77;;
4744;SDS011;2386;42.138;24.746;2023-07-24T08:59:32;33.97;;;16.17;;
4744;SDS011;2386;42.138;24.746;2023-07-24T09:01:58;55.93;;;17.90;;
4744;SDS011;2386;42.138;24.746;2023-07-24T09:04:24;45.13;;;17.93;;
4744;SDS011;2386;42.138;24.746;2023-07-24T09:06:50;47.17;;;18.27;;
4744;SDS011;2386;42.138;24.746;2023-07-24T09:09:15;29.97;;;16.57;;
4744;SDS011;2386;42.138;24.746;2023-07-24T09:14:20;43.33;;;20.00;;
4744;SDS011;2386;42.138;24.746;2023-07-24T09:16:49;41.90;;;23.77;;
4744;SDS011;2386;42.138;24.746;2023-07-24T09:19:26;36.63;;;17.03;;
4744;SDS011;2386;42.138;24.746;2023-07-24T09:21:51;21.90;;;14.63;;
4744;SDS011;2386;42.138;24.746;2023-07-24T09:24:16;39.03;;;16.23;;
4744;SDS011;2386;42.138;24.746;2023-07-24T09:26:48;62.97;;;18.50;;
4744;SDS011;2386;42.138;24.746;2023-07-24T09:29:15;50.53;;;16.80;;
4744;SDS011;2386;42.138;24.746;2023-07-24T09:31:41;74.47;;;19.50;;
4744;SDS011;2386;42.138;24.746;2023-07-24T09:34:16;22.77;;;12.20;;
4744;SDS011;2386;42.138;24.746;2023-07-24T09:36:42;24.33;;;13.73;;
4744;SDS011;2386;42.138;24.746;2023-07-24T09:39:08;25.60;;;13.23;;
4744;SDS011;2386;42.138;24.746;2023-07-24T09:41:36;35.87;;;14.73;;
4744;SDS011;2386;42.138;24.746;2023-07-24T09:44:02;35.57;;;15.17;;
4744;SDS011;2386;42.138;24.746;2023-07-24T09:46:27;33.93;;;13.77;;
4744;SDS011;2386;42.138;24.746;2023-07-24T09:48:55;30.63;;;14.87;;
4744;SDS011;2386;42.138;24.746;2023-07-24T09:51:21;29.63;;;13.30;;
4744;SDS011;2386;42.138;24.746;2023-07-24T09:53:58;42.87;;;15.50;;
4744;SDS011;2386;42.138;24.746;2023-07-24T09:56:32;25.03;;;12.57;;
4744;SDS011;2386;42.138;24.746;2023-07-24T09:58:59;39.50;;;13.83;;
4744;SDS011;2386;42.138;24.746;2023-07-24T10:01:27;27.83;;;13.67;;
4744;SDS011;2386;42.138;24.746;2023-07-24T10:03:53;52.33;;;15.07;;
4744;SDS011;2386;42.138;24.746;2023-07-24T10:06:19;50.43;;;16.27;;
4744;SDS011;2386;42.138;24.746;2023-07-24T10:08:45;23.37;;;12.90;;
4744;SDS011;2386;42.138;24.746;2023-07-24T10:11:11;22.10;;;12.20;;
4744;SDS011;2386;42.138;24.746;2023-07-24T10:13:38;48.60;;;28.40;;
4744;SDS011;2386;42.138;24.746;2023-07-24T10:16:05;34.00;;;23.47;;
4744;SDS011;2386;42.138;24.746;2023-07-24T10:18:32;28.10;;;13.10;;
4744;SDS011;2386;42.138;24.746;2023-07-24T10:21:00;21.70;;;11.67;;
4744;SDS011;2386;42.138;24.746;2023-07-24T10:23:26;29.40;;;12.77;;
4744;SDS011;2386;42.138;24.746;2023-07-24T10:25:52;27.73;;;12.40;;
4744;SDS011;2386;42.138;24.746;2023-07-24T10:28:17;33.40;;;15.90;;
4744;SDS011;2386;42.138;24.746;2023-07-24T10:30:44;32.13;;;15.23;;
4744;SDS011;2386;42.138;24.746;2023-07-24T10:35:39;39.93;;;13.43;;
4744;SDS011;2386;42.138;24.746;2023-07-24T10:38:10;28.70;;;13.57;;
4744;SDS011;2386;42.138;24.746;2023-07-24T10:40:36;31.50;;;13.73;;
4744;SDS011;2386;42.138;24.746;2023-07-24T10:43:06;31.50;;;13.43;;
4744;SDS011;2386;42.138;24.746;2023-07-24T10:48:06;26.20;;;12.17;;
4744;SDS011;2386;42.138;24.746;2023-07-24T10:50:41;22.07;;;11.93;;
4744;SDS011;2386;42.138;24.746;2023-07-24T10:53:09;29.33;;;12.20;;
4744;SDS011;2386;42.138;24.746;2023-07-24T10:55:35;24.80;;;12.30;;
4744;SDS011;2386;42.138;24.746;2023-07-24T10:58:01;88.53;;;15.97;;
4744;SDS011;2386;42.138;24.746;2023-07-24T11:00:26;17.00;;;11.67;;
4744;SDS011;2386;42.138;24.746;2023-07-24T11:02:53;29.10;;;12.30;;
4744;SDS011;2386;42.138;24.746;2023-07-24T11:05:20;26.13;;;12.40;;
4744;SDS011;2386;42.138;24.746;2023-07-24T11:07:46;36.13;;;19.63;;
4744;SDS011;2386;42.138;24.746;2023-07-24T11:10:15;25.73;;;13.07;;
4744;SDS011;2386;42.138;24.746;2023-07-24T11:12:42;31.03;;;14.93;;
4744;SDS011;2386;42.138;24.746;2023-07-24T11:15:07;32.53;;;12.77;;
4744;SDS011;2386;42.138;24.746;2023-07-24T11:17:36;24.97;;;13.27;;
4744;SDS011;2386;42.138;24.746;2023-07-24T11:20:12;22.27;;;14.10;;
4744;SDS011;2386;42.138;24.746;2023-07-24T11:22:39;34.43;;;14.87;;
4744;SDS011;2386;42.138;24.746;2023-07-24T11:25:06;28.63;;;13.13;;
4744;SDS011;2386;42.138;24.746;2023-07-24T11:27:32;22.33;;;12.30;;
4744;SDS011;2386;42.138;24.746;2023-07-24T11:29:58;25.50;;;12.80;;
4744;SDS011;2386;42.138;24.746;2023-07-24T11:32:23;23.03;;;12.93;;
4744;SDS011;2386;42.138;24.746;2023-07-24T11:34:49;23.03;;;11.90;;
4744;SDS011;2386;42.138;24.746;2023-07-24T11:37:16;42.87;;;14.97;;
4744;SDS011;2386;42.138;24.746;2023-07-24T11:39:43;34.67;;;14.87;;
4744;SDS011;2386;42.138;24.746;2023-07-24T11:42:08;26.13;;;13.80;;
4744;SDS011;2386;42.138;24.746;2023-07-24T11:44:34;24.97;;;13.03;;
4744;SDS011;2386;42.138;24.746;2023-07-24T11:47:01;28.93;;;13.70;;
4744;SDS011;2386;42.138;24.746;2023-07-24T11:49:28;18.83;;;11.87;;
4744;SDS011;2386;42.138;24.746;2023-07-24T11:52:14;34.33;;;13.50;;
4744;SDS011;2386;42.138;24.746;2023-07-24T11:54:39;22.40;;;11.80;;
4744;SDS011;2386;42.138;24.746;2023-07-24T11:57:17;26.43;;;13.50;;
4744;SDS011;2386;42.138;24.746;2023-07-24T11:59:42;36.73;;;14.50;;
4744;SDS011;2386;42.138;24.746;2023-07-24T12:02:11;41.30;;;17.27;;
4744;SDS011;2386;42.138;24.746;2023-07-24T12:04:37;20.23;;;11.70;;
4744;SDS011;2386;42.138;24.746;2023-07-24T12:07:07;24.43;;;12.37;;
4744;SDS011;2386;42.138;24.746;2023-07-24T12:09:33;23.43;;;12.50;;
4744;SDS011;2386;42.138;24.746;2023-07-24T12:11:58;19.17;;;11.00;;
4744;SDS011;2386;42.138;24.746;2023-07-24T12:14:24;26.90;;;11.68;;
4744;SDS011;2386;42.138;24.746;2023-07-24T12:16:59;13.32;;;9.20;;
4744;SDS011;2386;42.138;24.746;2023-07-24T12:19:28;24.85;;;10.52;;
4744;SDS011;2386;42.138;24.746;2023-07-24T12:21:53;15.38;;;8.82;;
4744;SDS011;2386;42.138;24.746;2023-07-24T12:24:19;11.40;;;7.70;;
4744;SDS011;2386;42.138;24.746;2023-07-24T12:26:44;12.63;;;7.93;;
4744;SDS011;2386;42.138;24.746;2023-07-24T12:29:09;19.83;;;9.90;;
4744;SDS011;2386;42.138;24.746;2023-07-24T12:31:35;14.60;;;8.68;;
4744;SDS011;2386;42.138;24.746;2023-07-24T12:34:00;20.15;;;9.02;;
4744;SDS011;2386;42.138;24.746;2023-07-24T12:36:26;18.80;;;10.23;;
4744;SDS011;2386;42.138;24.746;2023-07-24T12:38:51;19.50;;;10.85;;
4744;SDS011;2386;42.138;24.746;2023-07-24T12:41:17;14.32;;;8.85;;
4744;SDS011;2386;42.138;24.746;2023-07-24T12:43:43;16.17;;;9.40;;
4744;SDS011;2386;42.138;24.746;2023-07-24T12:46:09;19.92;;;12.63;;
4744;SDS011;2386;42.138;24.746;2023-07-24T12:48:35;17.10;;;11.55;;
4744;SDS011;2386;42.138;24.746;2023-07-24T12:51:01;19.02;;;11.45;;
4744;SDS011;2386;42.138;24.746;2023-07-24T12:53:26;18.33;;;10.70;;
4744;SDS011;2386;42.138;24.746;2023-07-24T12:55:52;20.05;;;9.13;;
4744;SDS011;2386;42.138;24.746;2023-07-24T12:58:18;22.05;;;15.88;;
4744;SDS011;2386;42.138;24.746;2023-07-24T13:00:43;20.67;;;16.23;;
4744;SDS011;2386;42.138;24.746;2023-07-24T13:03:08;26.75;;;21.13;;
4744;SDS011;2386;42.138;24.746;2023-07-24T13:05:34;28.15;;;25.15;;
4744;SDS011;2386;42.138;24.746;2023-07-24T13:07:59;37.53;;;34.05;;
4744;SDS011;2386;42.138;24.746;2023-07-24T13:10:25;45.50;;;41.70;;
4744;SDS011;2386;42.138;24.746;2023-07-24T13:12:50;27.02;;;24.40;;
4744;SDS011;2386;42.138;24.746;2023-07-24T13:15:15;17.92;;;16.33;;
4744;SDS011;2386;42.138;24.746;2023-07-24T13:17:41;18.95;;;16.98;;
4744;SDS011;2386;42.138;24.746;2023-07-24T13:20:06;25.98;;;23.05;;
4744;SDS011;2386;42.138;24.746;2023-07-24T13:22:32;20.15;;;18.42;;
4744;SDS011;2386;42.138;24.746;2023-07-24T13:24:57;43.72;;;40.05;;
4744;SDS011;2386;42.138;24.746;2023-07-24T13:27:23;73.60;;;67.00;;
4744;SDS011;2386;42.138;24.746;2023-07-24T13:29:48;40.67;;;37.45;;
4744;SDS011;2386;42.138;24.746;2023-07-24T13:32:14;37.40;;;33.42;;
4744;SDS011;2386;42.138;24.746;2023-07-24T13:34:41;56.85;;;51.63;;
4744;SDS011;2386;42.138;24.746;2023-07-24T13:37:06;52.95;;;48.20;;
4744;SDS011;2386;42.138;24.746;2023-07-24T13:39:32;60.53;;;56.28;;
4744;SDS011;2386;42.138;24.746;2023-07-24T13:41:58;59.42;;;55.72;;
4744;SDS011;2386;42.138;24.746;2023-07-24T13:44:24;39.30;;;35.75;;
4744;SDS011;2386;42.138;24.746;2023-07-24T13:46:49;49.30;;;45.35;;
4744;SDS011;2386;42.138;24.746;2023-07-24T13:49:15;126.45;;;117.05;;
4744;SDS011;2386;42.138;24.746;2023-07-24T13:51:40;109.72;;;102.15;;
4744;SDS011;2386;42.138;24.746;2023-07-24T13:54:05;82.28;;;76.20;;
4744;SDS011;2386;42.138;24.746;2023-07-24T13:56:31;111.78;;;103.97;;
4744;SDS011;2386;42.138;24.746;2023-07-24T13:59:00;83.10;;;77.07;;
4744;SDS011;2386;42.138;24.746;2023-07-24T14:01:25;98.28;;;91.38;;
4744;SDS011;2386;42.138;24.746;2023-07-24T14:03:50;204.30;;;189.48;;
4744;SDS011;2386;42.138;24.746;2023-07-24T14:06:18;159.68;;;147.75;;
4744;SDS011;2386;42.138;24.746;2023-07-24T14:08:44;89.18;;;82.93;;
4744;SDS011;2386;42.138;24.746;2023-07-24T14:14:31;57.95;;;53.40;;
4744;SDS011;2386;42.138;24.746;2023-07-24T14:16:56;31.42;;;28.35;;
4744;SDS011;2386;42.138;24.746;2023-07-24T14:19:22;39.25;;;34.17;;
4744;SDS011;2386;42.138;24.746;2023-07-24T14:21:48;45.05;;;41.83;;
4744;SDS011;2386;42.138;24.746;2023-07-24T14:24:15;48.13;;;44.63;;
4744;SDS011;2386;42.138;24.746;2023-07-24T14:26:40;44.50;;;27.05;;
4744;SDS011;2386;42.138;24.746;2023-07-24T14:29:05;25.92;;;23.45;;
4744;SDS011;2386;42.138;24.746;2023-07-24T14:31:31;59.08;;;35.33;;
4744;SDS011;2386;42.138;24.746;2023-07-24T14:33:57;17.38;;;13.95;;
4744;SDS011;2386;42.138;24.746;2023-07-24T14:36:22;28.77;;;25.85;;
4744;SDS011;2386;42.138;24.746;2023-07-24T14:38:48;79.15;;;73.20;;
4744;SDS011;2386;42.138;24.746;2023-07-24T14:41:15;13.77;;;7.85;;
4744;SDS011;2386;42.138;24.746;2023-07-24T14:43:41;16.20;;;8.68;;
4744;SDS011;2386;42.138;24.746;2023-07-24T14:46:06;31.98;;;12.00;;
4744;SDS011;2386;42.138;24.746;2023-07-24T14:48:32;16.42;;;7.35;;
4744;SDS011;2386;42.138;24.746;2023-07-24T14:53:51;24.10;;;9.73;;